createdAt,value
2015-10-27T00:00:03.466Z,54.13
2015-10-27T00:00:15.794Z,53.94
2015-10-27T00:00:27.998Z,54.32
2015-10-27T00:00:40.297Z,54.13
2015-10-27T00:00:52.594Z,53.65
2015-10-27T00:01:04.891Z,53.65
2015-10-27T00:01:17.172Z,53.94
2015-10-27T00:01:29.469Z,54.03
2015-10-27T00:01:41.785Z,53.56
2015-10-27T00:01:54.113Z,53.65
2015-10-27T00:02:06.425Z,53.27
2015-10-27T00:02:18.754Z,53.56
2015-10-27T00:02:31.082Z,53.37
2015-10-27T00:02:43.397Z,53.37
2015-10-27T00:02:55.694Z,53.18
2015-10-27T00:03:07.991Z,53.72
2015-10-27T00:03:20.303Z,53.08
2015-10-27T00:03:32.600Z,53.37
2015-10-27T00:03:44.898Z,53.18
2015-10-27T00:03:57.226Z,53.08
2015-10-27T00:04:09.539Z,53.27
2015-10-27T00:04:21.867Z,53.18
2015-10-27T00:04:34.195Z,52.89
2015-10-27T00:04:46.542Z,52.89
2015-10-27T00:04:58.870Z,52.89
2015-10-27T00:05:11.151Z,52.98
2015-10-27T00:05:23.448Z,52.98
2015-10-27T00:05:35.761Z,52.98
2015-10-27T00:05:48.060Z,52.98
2015-10-27T00:06:00.357Z,52.89
2015-10-27T00:06:12.654Z,53.18
2015-10-27T00:06:24.967Z,53.08
2015-10-27T00:06:37.313Z,53.18
2015-10-27T00:06:49.657Z,53.56
2015-10-27T00:07:01.970Z,53.27
2015-10-27T00:07:14.282Z,53.65
2015-10-27T00:07:26.579Z,53.84
2015-10-27T00:07:38.878Z,53.75
2015-10-27T00:07:51.159Z,53.56
2015-10-27T00:08:03.472Z,53.46
2015-10-27T00:08:15.769Z,54.03
2015-10-27T00:08:28.081Z,53.84
2015-10-27T00:08:40.397Z,53.84
2015-10-27T00:08:52.725Z,54.22
2015-10-27T00:09:05.053Z,54.1
2015-10-27T00:09:17.381Z,54.47
2015-10-27T00:09:29.678Z,54.41
2015-10-27T00:09:41.978Z,54.57
2015-10-27T00:09:54.275Z,54.76
2015-10-27T00:10:06.571Z,54.67
2015-10-27T00:10:18.868Z,54.76
2015-10-27T00:10:31.181Z,54.76
2015-10-27T00:10:43.496Z,55.05
2015-10-27T00:10:55.809Z,54.86
2015-10-27T00:11:08.137Z,55.14
2015-10-27T00:11:20.449Z,55.14
2015-10-27T00:11:32.731Z,55.33
2015-10-27T00:11:45.030Z,55.71
2015-10-27T00:11:57.326Z,55.71
2015-10-27T00:12:09.623Z,55.52
2015-10-27T00:12:21.920Z,55.71
2015-10-27T00:12:34.233Z,55.52
2015-10-27T00:12:46.533Z,55.43
2015-10-27T00:12:58.829Z,55.33
2015-10-27T00:13:11.126Z,55.14
2015-10-27T00:13:23.423Z,55.05
2015-10-27T00:13:35.720Z,54.95
2015-10-27T00:13:48.019Z,55.05
2015-10-27T00:14:00.316Z,55.05
2015-10-27T00:14:12.628Z,54.86
2015-10-27T00:14:24.956Z,54.95
2015-10-27T00:14:37.285Z,55.05
2015-10-27T00:14:49.600Z,54.76
2015-10-27T00:15:01.897Z,54.76
2015-10-27T00:15:14.178Z,54.86
2015-10-27T00:15:26.491Z,54.86
2015-10-27T00:15:38.806Z,54.67
2015-10-27T00:15:51.103Z,54.47
2015-10-27T00:16:03.416Z,54.28
2015-10-27T00:16:15.712Z,54.47
2015-10-27T00:16:28.041Z,54.47
2015-10-27T00:16:40.372Z,54.57
2015-10-27T00:16:52.700Z,54.47
2015-10-27T00:17:05.028Z,54.67
2015-10-27T00:17:17.309Z,54.57
2015-10-27T00:17:29.622Z,54
2015-10-27T00:17:41.921Z,54.19
2015-10-27T00:17:54.217Z,54.57
2015-10-27T00:18:06.514Z,54.47
2015-10-27T00:18:18.842Z,54.1
2015-10-27T00:18:31.139Z,54.19
2015-10-27T00:18:43.470Z,54.1
2015-10-27T00:18:55.658Z,54.19
2015-10-27T00:19:08.002Z,54.19
2015-10-27T00:19:20.299Z,54.1
2015-10-27T00:19:32.595Z,54
2015-10-27T00:19:44.911Z,54.1
2015-10-27T00:19:57.211Z,54.19
2015-10-27T00:20:09.523Z,54.19
2015-10-27T00:20:21.851Z,54.19
2015-10-27T00:20:34.148Z,54.28
2015-10-27T00:20:46.447Z,54.19
2015-10-27T00:20:58.744Z,53.72
2015-10-27T00:21:11.057Z,53.81
2015-10-27T00:21:23.369Z,53.63
2015-10-27T00:21:35.682Z,53.72
2015-10-27T00:21:48.028Z,53.63
2015-10-27T00:22:00.341Z,53.63
2015-10-27T00:22:12.653Z,53.53
2015-10-27T00:22:24.950Z,53.44
2015-10-27T00:22:37.247Z,53.06
2015-10-27T00:22:49.531Z,53.15
2015-10-27T00:23:01.844Z,52.96
2015-10-27T00:23:14.156Z,52.87
2015-10-27T00:23:26.469Z,52.96
2015-10-27T00:23:38.799Z,52.87
2015-10-27T00:23:51.143Z,53.25
2015-10-27T00:24:03.455Z,53.34
2015-10-27T00:24:15.752Z,53.37
2015-10-27T00:24:28.049Z,53.63
2015-10-27T00:24:40.349Z,54
2015-10-27T00:24:52.677Z,53.81
2015-10-27T00:25:05.005Z,53.81
2015-10-27T00:25:17.318Z,54.19
2015-10-27T00:25:29.630Z,54.1
2015-10-27T00:25:41.946Z,54
2015-10-27T00:25:54.258Z,54.38
2015-10-27T00:26:06.586Z,54.38
2015-10-27T00:26:18.883Z,54.47
2015-10-27T00:26:31.196Z,54.57
2015-10-27T00:26:43.511Z,54.76
2015-10-27T00:26:55.855Z,54.67
2015-10-27T00:27:08.167Z,54.67
2015-10-27T00:27:20.464Z,54.67
2015-10-27T00:27:32.761Z,54.76
2015-10-27T00:27:45.076Z,54.76
2015-10-27T00:27:57.372Z,54.76
2015-10-27T00:28:09.669Z,54.76
2015-10-27T00:28:21.982Z,54.57
2015-10-27T00:28:34.294Z,54.38
2015-10-27T00:28:46.625Z,54.1
2015-10-27T00:28:58.954Z,54.19
2015-10-27T00:29:11.282Z,54.19
2015-10-27T00:29:23.594Z,54.47
2015-10-27T00:29:35.891Z,54.19
2015-10-27T00:29:48.207Z,53.81
2015-10-27T00:30:00.535Z,54
2015-10-27T00:30:12.847Z,53.63
2015-10-27T00:30:25.175Z,53.34
2015-10-27T00:30:37.472Z,53.44
2015-10-27T00:30:49.772Z,53.25
2015-10-27T00:31:01.944Z,53.06
2015-10-27T00:31:14.256Z,52.87
2015-10-27T00:31:26.585Z,52.96
2015-10-27T00:31:38.899Z,53.06
2015-10-27T00:31:51.196Z,52.48
2015-10-27T00:32:03.493Z,52.58
2015-10-27T00:32:15.790Z,52.39
2015-10-27T00:32:28.087Z,52.2
2015-10-27T00:32:40.371Z,52.39
2015-10-27T00:32:52.683Z,52.29
2015-10-27T00:33:04.996Z,52.39
2015-10-27T00:33:17.340Z,52.48
2015-10-27T00:33:29.668Z,52.39
2015-10-27T00:33:41.968Z,52.29
2015-10-27T00:33:54.280Z,52.39
2015-10-27T00:34:06.593Z,52.29
2015-10-27T00:34:18.905Z,52.29
2015-10-27T00:34:31.233Z,52.11
2015-10-27T00:34:43.563Z,52.11
2015-10-27T00:34:55.860Z,52.11
2015-10-27T00:35:08.173Z,51.92
2015-10-27T00:35:20.485Z,51.73
2015-10-27T00:35:32.829Z,52.01
2015-10-27T00:35:45.143Z,51.64
2015-10-27T00:35:57.472Z,51.16
2015-10-27T00:36:09.800Z,51.45
2015-10-27T00:36:22.128Z,51.35
2015-10-27T00:36:34.440Z,51.26
2015-10-27T00:36:46.740Z,51.73
2015-10-27T00:36:59.037Z,51.54
2015-10-27T00:37:11.334Z,51.73
2015-10-27T00:37:23.631Z,51.16
2015-10-27T00:37:35.928Z,51.54
2015-10-27T00:37:48.259Z,51.07
2015-10-27T00:38:00.571Z,50.88
2015-10-27T00:38:12.899Z,50.78
2015-10-27T00:38:25.243Z,50.43
2015-10-27T00:38:37.540Z,50.12
2015-10-27T00:38:49.840Z,49.95
2015-10-27T00:39:02.152Z,50.21
2015-10-27T00:39:14.481Z,50.12
2015-10-27T00:39:26.809Z,49.95
2015-10-27T00:39:39.124Z,49.95
2015-10-27T00:39:51.421Z,49.84
2015-10-27T00:40:03.734Z,49.86
2015-10-27T00:40:16.030Z,49.67
2015-10-27T00:40:28.343Z,49.86
2015-10-27T00:40:40.643Z,49.67
2015-10-27T00:40:52.955Z,49.67
2015-10-27T00:41:05.268Z,49.57
2015-10-27T00:41:17.612Z,49.57
2015-10-27T00:41:29.940Z,49.65
2015-10-27T00:41:42.270Z,49.57
2015-10-27T00:41:54.567Z,49.48
2015-10-27T00:42:06.707Z,49.48
2015-10-27T00:42:19.004Z,49.38
2015-10-27T00:42:31.301Z,49.48
2015-10-27T00:42:43.617Z,49.38
2015-10-27T00:42:55.913Z,49.1
2015-10-27T00:43:08.242Z,49.19
2015-10-27T00:43:20.538Z,49.19
2015-10-27T00:43:32.882Z,49.19
2015-10-27T00:43:45.213Z,49.01
2015-10-27T00:43:57.510Z,48.89
2015-10-27T00:44:09.823Z,48.98
2015-10-27T00:44:22.120Z,49.19
2015-10-27T00:44:34.479Z,49.17
2015-10-27T00:44:46.623Z,49.17
2015-10-27T00:44:58.919Z,48.91
2015-10-27T00:45:11.232Z,49.01
2015-10-27T00:45:23.544Z,49.19
2015-10-27T00:45:35.873Z,49.08
2015-10-27T00:45:48.233Z,49.1
2015-10-27T00:46:00.514Z,49.36
2015-10-27T00:46:12.811Z,49.29
2015-10-27T00:46:25.139Z,49.1
2015-10-27T00:46:37.452Z,49.01
2015-10-27T00:46:49.767Z,49.19
2015-10-27T00:47:02.048Z,49.08
2015-10-27T00:47:14.345Z,49.27
2015-10-27T00:47:26.642Z,49.38
2015-10-27T00:47:38.942Z,49.19
2015-10-27T00:47:51.223Z,49.38
2015-10-27T00:48:03.520Z,49.46
2015-10-27T00:48:15.833Z,49.55
2015-10-27T00:48:28.130Z,49.46
2015-10-27T00:48:40.429Z,49.36
2015-10-27T00:48:52.726Z,49.46
2015-10-27T00:49:05.039Z,49.57
2015-10-27T00:49:17.351Z,49.67
2015-10-27T00:49:29.679Z,49.57
2015-10-27T00:49:42.010Z,49.48
2015-10-27T00:49:54.306Z,49.57
2015-10-27T00:50:06.603Z,49.65
2015-10-27T00:50:18.900Z,49.74
2015-10-27T00:50:31.197Z,49.74
2015-10-27T00:50:43.497Z,49.84
2015-10-27T00:50:55.809Z,49.93
2015-10-27T00:51:08.122Z,49.86
2015-10-27T00:51:20.450Z,49.93
2015-10-27T00:51:32.794Z,49.95
2015-10-27T00:51:45.109Z,50.12
2015-10-27T00:51:57.406Z,50.12
2015-10-27T00:52:09.703Z,50.21
2015-10-27T00:52:21.266Z,50.24
2015-10-27T00:52:33.562Z,50.31
2015-10-27T00:52:45.862Z,50.31
2015-10-27T00:52:58.159Z,50.49
2015-10-27T00:53:10.487Z,50.59
2015-10-27T00:53:22.831Z,50.59
2015-10-27T00:53:35.175Z,50.4
2015-10-27T00:53:47.474Z,50.21
2015-10-27T00:53:59.786Z,50.21
2015-10-27T00:54:12.099Z,50.59
2015-10-27T00:54:24.411Z,50.49
2015-10-27T00:54:36.739Z,50.78
2015-10-27T00:54:49.070Z,50.59
2015-10-27T00:55:01.367Z,50.4
2015-10-27T00:55:13.664Z,50.97
2015-10-27T00:55:25.961Z,50.49
2015-10-27T00:55:38.258Z,50.49
2015-10-27T00:55:50.558Z,50.59
2015-10-27T00:56:02.870Z,50.4
2015-10-27T00:56:15.183Z,50.49
2015-10-27T00:56:27.495Z,50.31
2015-10-27T00:56:39.826Z,50.31
2015-10-27T00:56:52.155Z,50.4
2015-10-27T00:57:04.530Z,50.12
2015-10-27T00:57:16.811Z,50.12
2015-10-27T00:57:29.108Z,50.02
2015-10-27T00:57:41.407Z,50.12
2015-10-27T00:57:53.719Z,49.84
2015-10-27T00:58:06.016Z,49.65
2015-10-27T00:58:18.313Z,49.27
2015-10-27T00:58:30.610Z,49.17
2015-10-27T00:58:42.925Z,48.89
2015-10-27T00:58:55.222Z,48.79
2015-10-27T00:59:07.519Z,48.6
2015-10-27T00:59:19.816Z,48.41
2015-10-27T00:59:32.128Z,48.41
2015-10-27T00:59:44.444Z,48.13
2015-10-27T00:59:56.772Z,48.13
2015-10-27T01:00:09.116Z,48.03
2015-10-27T01:00:21.444Z,47.75
2015-10-27T01:00:33.741Z,48.13
2015-10-27T01:00:46.041Z,47.66
2015-10-27T01:00:58.322Z,47.66
2015-10-27T01:01:10.634Z,47.94
2015-10-27T01:01:22.916Z,47.87
2015-10-27T01:01:35.087Z,47.66
2015-10-27T01:01:47.385Z,47.85
2015-10-27T01:01:59.713Z,47.75
2015-10-27T01:02:12.042Z,47.87
2015-10-27T01:02:24.354Z,47.85
2015-10-27T01:02:36.635Z,47.68
2015-10-27T01:02:48.935Z,47.77
2015-10-27T01:03:01.216Z,47.58
2015-10-27T01:03:13.529Z,47.2
2015-10-27T01:03:25.826Z,47.02
2015-10-27T01:03:38.138Z,47.11
2015-10-27T01:03:50.438Z,47.11
2015-10-27T01:04:02.798Z,47.2
2015-10-27T01:04:15.126Z,47.3
2015-10-27T01:04:27.454Z,46.83
2015-10-27T01:04:39.769Z,46.92
2015-10-27T01:04:52.066Z,47.02
2015-10-27T01:05:04.363Z,46.92
2015-10-27T01:05:16.660Z,46.83
2015-10-27T01:05:28.972Z,46.64
2015-10-27T01:05:41.288Z,46.83
2015-10-27T01:05:53.616Z,46.64
2015-10-27T01:06:05.929Z,46.64
2015-10-27T01:06:18.225Z,46.73
2015-10-27T01:06:30.522Z,46.54
2015-10-27T01:06:42.837Z,46.54
2015-10-27T01:06:55.149Z,46.16
2015-10-27T01:07:07.446Z,45.97
2015-10-27T01:07:19.759Z,46.07
2015-10-27T01:07:32.087Z,46.26
2015-10-27T01:07:44.418Z,46.45
2015-10-27T01:07:56.730Z,46.26
2015-10-27T01:08:09.027Z,46.35
2015-10-27T01:08:21.324Z,46.07
2015-10-27T01:08:33.621Z,46.16
2015-10-27T01:08:45.937Z,46.35
2015-10-27T01:08:58.233Z,46.35
2015-10-27T01:09:10.546Z,46.07
2015-10-27T01:09:22.843Z,46.16
2015-10-27T01:09:35.187Z,45.97
2015-10-27T01:09:47.533Z,46.07
2015-10-27T01:09:59.861Z,45.78
2015-10-27T01:10:12.158Z,45.78
2015-10-27T01:10:24.455Z,45.78
2015-10-27T01:10:36.752Z,45.88
2015-10-27T01:10:49.051Z,45.78
2015-10-27T01:11:01.613Z,45.88
2015-10-27T01:11:13.942Z,45.88
2015-10-27T01:11:26.238Z,45.88
2015-10-27T01:11:38.535Z,45.88
2015-10-27T01:11:50.835Z,45.88
2015-10-27T01:12:03.132Z,46.35
2015-10-27T01:12:15.429Z,46.45
2015-10-27T01:12:27.726Z,45.97
2015-10-27T01:12:40.040Z,46.26
2015-10-27T01:12:52.337Z,46.35
2015-10-27T01:13:04.665Z,46.07
2015-10-27T01:13:16.993Z,45.97
2015-10-27T01:13:29.322Z,45.97
2015-10-27T01:13:41.621Z,45.97
2015-10-27T01:13:53.918Z,45.97
2015-10-27T01:14:06.246Z,45.88
2015-10-27T01:14:18.559Z,46.26
2015-10-27T01:14:30.887Z,45.78
2015-10-27T01:14:43.045Z,45.97
2015-10-27T01:14:55.342Z,45.97
2015-10-27T01:15:07.639Z,46.54
2015-10-27T01:15:19.920Z,45.97
2015-10-27T01:15:32.233Z,46.07
2015-10-27T01:15:44.533Z,46.45
2015-10-27T01:15:56.845Z,46.26
2015-10-27T01:16:09.142Z,46.45
2015-10-27T01:16:21.486Z,46.26
2015-10-27T01:16:33.814Z,46.45
2015-10-27T01:16:46.129Z,46.35
2015-10-27T01:16:58.442Z,46.54
2015-10-27T01:17:10.739Z,46.45
2015-10-27T01:17:23.020Z,46.54
2015-10-27T01:17:35.317Z,46.45
2015-10-27T01:17:47.632Z,46.54
2015-10-27T01:17:59.945Z,46.73
2015-10-27T01:18:12.257Z,46.64
2015-10-27T01:18:24.586Z,46.73
2015-10-27T01:18:36.882Z,46.73
2015-10-27T01:18:49.181Z,46.73
2015-10-27T01:19:01.478Z,46.64
2015-10-27T01:19:13.603Z,46.83
2015-10-27T01:19:25.916Z,46.83
2015-10-27T01:19:38.213Z,46.92
2015-10-27T01:19:50.544Z,46.92
2015-10-27T01:20:02.872Z,46.92
2015-10-27T01:20:15.200Z,47.2
2015-10-27T01:20:27.481Z,47.49
2015-10-27T01:20:39.781Z,47.77
2015-10-27T01:20:52.094Z,47.49
2015-10-27T01:21:04.422Z,48.15
2015-10-27T01:21:16.719Z,48.15
2015-10-27T01:21:29.015Z,48.25
2015-10-27T01:21:41.315Z,48.54
2015-10-27T01:21:53.628Z,48.54
2015-10-27T01:22:05.909Z,48.91
2015-10-27T01:22:18.175Z,48.72
2015-10-27T01:22:30.456Z,48.72
2015-10-27T01:22:42.755Z,48.63
2015-10-27T01:23:05.755Z,48.63
2015-10-27T01:23:18.989Z,48.72
2015-10-27T01:23:31.286Z,48.63
2015-10-27T01:23:43.602Z,48.15
2015-10-27T01:23:55.898Z,48.06
2015-10-27T01:24:08.211Z,47.87
2015-10-27T01:24:20.508Z,47.96
2015-10-27T01:24:32.836Z,48.15
2015-10-27T01:24:45.167Z,48.15
2015-10-27T01:24:57.480Z,48.25
2015-10-27T01:25:09.839Z,48.25
2015-10-27T01:25:22.151Z,48.72
2015-10-27T01:25:34.448Z,48.91
2015-10-27T01:25:46.779Z,48.54
2015-10-27T01:25:59.108Z,48.91
2015-10-27T01:26:11.436Z,48.72
2015-10-27T01:26:23.733Z,48.91
2015-10-27T01:26:36.029Z,48.54
2015-10-27T01:26:48.328Z,48.63
2015-10-27T01:27:00.625Z,48.44
2015-10-27T01:27:12.922Z,48.44
2015-10-27T01:27:25.250Z,48.25
2015-10-27T01:27:37.563Z,48.25
2015-10-27T01:27:49.878Z,48.06
2015-10-27T01:28:02.206Z,47.96
2015-10-27T01:28:14.503Z,48.06
2015-10-27T01:28:26.800Z,48.06
2015-10-27T01:28:39.113Z,47.96
2015-10-27T01:28:51.427Z,47.77
2015-10-27T01:29:03.771Z,47.96
2015-10-27T01:29:16.099Z,47.96
2015-10-27T01:29:28.411Z,47.96
2015-10-27T01:29:40.711Z,47.96
2015-10-27T01:29:52.993Z,47.96
2015-10-27T01:30:05.164Z,48.06
2015-10-27T01:30:17.446Z,47.94
2015-10-27T01:30:29.774Z,48.03
2015-10-27T01:30:42.073Z,47.96
2015-10-27T01:30:54.416Z,47.85
2015-10-27T01:31:06.745Z,48.03
2015-10-27T01:31:19.057Z,47.58
2015-10-27T01:31:31.354Z,47.87
2015-10-27T01:31:43.654Z,47.66
2015-10-27T01:31:55.935Z,47.58
2015-10-27T01:32:08.232Z,47.58
2015-10-27T01:32:20.529Z,47.68
2015-10-27T01:32:32.841Z,47.68
2015-10-27T01:32:45.157Z,47.87
2015-10-27T01:32:57.485Z,47.87
2015-10-27T01:33:09.813Z,47.87
2015-10-27T01:33:22.126Z,47.77
2015-10-27T01:33:34.422Z,47.94
2015-10-27T01:33:46.722Z,47.96
2015-10-27T01:33:59.019Z,48.03
2015-10-27T01:34:11.332Z,48.06
2015-10-27T01:34:23.629Z,48.06
2015-10-27T01:34:35.941Z,47.58
2015-10-27T01:34:48.240Z,48.13
2015-10-27T01:35:00.599Z,47.66
2015-10-27T01:35:12.927Z,47.56
2015-10-27T01:35:25.271Z,47.85
2015-10-27T01:35:37.599Z,47.75
2015-10-27T01:35:49.743Z,47.68
2015-10-27T01:36:02.040Z,47.68
2015-10-27T01:36:14.337Z,47.87
2015-10-27T01:36:26.649Z,47.96
2015-10-27T01:36:38.946Z,47.96
2015-10-27T01:36:51.277Z,47.87
2015-10-27T01:37:03.433Z,47.66
2015-10-27T01:37:15.762Z,47.68
2015-10-27T01:37:28.090Z,47.85
2015-10-27T01:37:40.452Z,47.87
2015-10-27T01:37:52.749Z,47.68
2015-10-27T01:38:05.046Z,47.39
2015-10-27T01:38:17.343Z,47.39
2015-10-27T01:38:29.655Z,47.11
2015-10-27T01:38:41.954Z,47.02
2015-10-27T01:38:54.251Z,47.02
2015-10-27T01:39:06.563Z,47.11
2015-10-27T01:39:18.876Z,47.11
2015-10-27T01:39:31.220Z,47.02
2015-10-27T01:39:43.551Z,47.39
2015-10-27T01:39:55.879Z,47.39
2015-10-27T01:40:08.176Z,47.68
2015-10-27T01:40:20.316Z,47.87
2015-10-27T01:40:32.613Z,47.87
2015-10-27T01:40:44.928Z,47.68
2015-10-27T01:40:57.225Z,47.75
2015-10-27T01:41:09.522Z,47.87
2015-10-27T01:41:21.834Z,47.77
2015-10-27T01:41:34.178Z,47.66
2015-10-27T01:41:46.509Z,47.77
2015-10-27T01:41:58.837Z,47.39
2015-10-27T01:42:11.134Z,47.85
2015-10-27T01:42:23.446Z,47.58
2015-10-27T01:42:35.743Z,47.66
2015-10-27T01:42:48.043Z,47.56
2015-10-27T01:43:00.340Z,47.77
2015-10-27T01:43:12.637Z,47.87
2015-10-27T01:43:24.949Z,47.96
2015-10-27T01:43:37.246Z,47.87
2015-10-27T01:43:49.577Z,47.87
2015-10-27T01:44:01.906Z,47.96
2015-10-27T01:44:14.202Z,47.56
2015-10-27T01:44:26.515Z,47.56
2015-10-27T01:44:38.812Z,47.56
2015-10-27T01:44:51.111Z,47.87
2015-10-27T01:45:03.408Z,47.85
2015-10-27T01:45:15.720Z,47.66
2015-10-27T01:45:28.048Z,47.66
2015-10-27T01:45:40.376Z,47.66
2015-10-27T01:45:52.707Z,47.75
2015-10-27T01:46:05.020Z,47.66
2015-10-27T01:46:17.317Z,47.66
2015-10-27T01:46:29.614Z,47.66
2015-10-27T01:46:41.914Z,47.66
2015-10-27T01:46:54.226Z,47.75
2015-10-27T01:47:06.523Z,47.66
2015-10-27T01:47:18.835Z,47.85
2015-10-27T01:47:31.148Z,47.85
2015-10-27T01:47:43.495Z,47.85
2015-10-27T01:47:55.823Z,47.85
2015-10-27T01:48:08.167Z,47.85
2015-10-27T01:48:20.463Z,48.22
2015-10-27T01:48:32.760Z,48.03
2015-10-27T01:48:45.059Z,48.13
2015-10-27T01:48:57.356Z,48.03
2015-10-27T01:49:09.684Z,48.03
2015-10-27T01:49:22.012Z,47.94
2015-10-27T01:49:34.340Z,47.94
2015-10-27T01:49:46.703Z,48.03
2015-10-27T01:49:59.000Z,47.75
2015-10-27T01:50:11.297Z,47.85
2015-10-27T01:50:23.593Z,47.85
2015-10-27T01:50:35.890Z,48.03
2015-10-27T01:50:48.190Z,48.13
2015-10-27T01:51:00.503Z,47.85
2015-10-27T01:51:12.831Z,47.75
2015-10-27T01:51:25.143Z,47.85
2015-10-27T01:51:37.471Z,47.66
2015-10-27T01:51:49.803Z,47.66
2015-10-27T01:52:02.131Z,47.66
2015-10-27T01:52:14.428Z,47.66
2015-10-27T01:52:26.724Z,47.85
2015-10-27T01:52:39.021Z,47.75
2015-10-27T01:52:51.320Z,47.47
2015-10-27T01:53:03.633Z,47.66
2015-10-27T01:53:15.945Z,47.66
2015-10-27T01:53:28.258Z,47.94
2015-10-27T01:53:40.586Z,47.94
2015-10-27T01:53:52.776Z,47.85
2015-10-27T01:54:05.136Z,47.75
2015-10-27T01:54:17.433Z,47.75
2015-10-27T01:54:29.714Z,47.94
2015-10-27T01:54:42.014Z,47.66
2015-10-27T01:54:54.311Z,47.94
2015-10-27T01:55:06.623Z,47.94
2015-10-27T01:55:18.936Z,47.85
2015-10-27T01:55:31.248Z,47.94
2015-10-27T01:55:43.578Z,48.22
2015-10-27T01:55:55.891Z,48.32
2015-10-27T01:56:08.188Z,48.41
2015-10-27T01:56:20.469Z,48.79
2015-10-27T01:56:32.766Z,48.51
2015-10-27T01:56:45.065Z,48.79
2015-10-27T01:56:57.346Z,48.89
2015-10-27T01:57:09.502Z,48.51
2015-10-27T01:57:21.815Z,48.79
2015-10-27T01:57:34.127Z,48.6
2015-10-27T01:57:46.458Z,48.79
2015-10-27T01:57:58.755Z,48.79
2015-10-27T01:58:11.036Z,48.7
2015-10-27T01:58:23.333Z,48.98
2015-10-27T01:58:35.646Z,48.51
2015-10-27T01:58:47.946Z,48.32
2015-10-27T01:59:00.242Z,48.6
2015-10-27T01:59:12.555Z,48.32
2015-10-27T01:59:24.867Z,48.41
2015-10-27T01:59:37.196Z,48.22
2015-10-27T01:59:49.495Z,48.13
2015-10-27T02:00:01.792Z,47.94
2015-10-27T02:00:14.074Z,48.03
2015-10-27T02:00:26.370Z,48.03
2015-10-27T02:00:38.699Z,47.75
2015-10-27T02:00:50.997Z,47.85
2015-10-27T02:01:03.326Z,47.94
2015-10-27T02:01:15.622Z,47.85
2015-10-27T02:01:27.966Z,47.56
2015-10-27T02:01:40.310Z,47.85
2015-10-27T02:01:52.625Z,47.85
2015-10-27T02:02:04.922Z,47.75
2015-10-27T02:02:17.219Z,47.75
2015-10-27T02:02:29.516Z,47.94
2015-10-27T02:02:41.816Z,47.85
2015-10-27T02:02:54.097Z,47.66
2015-10-27T02:03:06.410Z,47.75
2015-10-27T02:03:18.722Z,47.94
2015-10-27T02:03:31.066Z,47.47
2015-10-27T02:03:43.397Z,47.75
2015-10-27T02:03:55.710Z,47.94
2015-10-27T02:04:08.006Z,47.66
2015-10-27T02:04:20.303Z,47.85
2015-10-27T02:04:32.600Z,47.94
2015-10-27T02:04:44.915Z,47.85
2015-10-27T02:04:57.212Z,47.75
2015-10-27T02:05:09.524Z,48.03
2015-10-27T02:05:21.821Z,48.03
2015-10-27T02:05:34.212Z,48.03
2015-10-27T02:05:46.527Z,47.85
2015-10-27T02:05:58.824Z,47.94
2015-10-27T02:06:11.121Z,48.03
2015-10-27T02:06:23.433Z,48.03
2015-10-27T02:06:35.730Z,48.13
2015-10-27T02:06:48.030Z,47.85
2015-10-27T02:07:00.343Z,48.03
2015-10-27T02:07:12.655Z,48.13
2015-10-27T02:07:24.983Z,47.85
2015-10-27T02:07:37.311Z,48.03
2015-10-27T02:07:49.658Z,47.94
2015-10-27T02:08:01.971Z,47.94
2015-10-27T02:08:14.267Z,47.94
2015-10-27T02:08:26.564Z,48.22
2015-10-27T02:08:38.861Z,48.03
2015-10-27T02:08:51.160Z,48.32
2015-10-27T02:09:03.488Z,48.32
2015-10-27T02:09:15.785Z,48.32
2015-10-27T02:09:28.113Z,48.32
2015-10-27T02:09:40.441Z,48.22
2015-10-27T02:09:52.772Z,48.51
2015-10-27T02:10:05.069Z,48.41
2015-10-27T02:10:17.366Z,48.79
2015-10-27T02:10:29.679Z,48.6
2015-10-27T02:10:41.979Z,48.79
2015-10-27T02:10:54.275Z,48.7
2015-10-27T02:11:06.588Z,48.79
2015-10-27T02:11:18.916Z,48.79
2015-10-27T02:11:31.244Z,48.6
2015-10-27T02:11:43.574Z,48.89
2015-10-27T02:11:55.871Z,48.79
2015-10-27T02:12:08.168Z,48.79
2015-10-27T02:12:20.465Z,48.98
2015-10-27T02:12:32.762Z,48.98
2015-10-27T02:12:45.046Z,48.79
2015-10-27T02:12:57.359Z,48.98
2015-10-27T02:13:09.671Z,48.89
2015-10-27T02:13:21.999Z,48.7
2015-10-27T02:13:34.327Z,48.6
2015-10-27T02:13:46.626Z,48.7
2015-10-27T02:13:58.923Z,48.79
2015-10-27T02:14:11.204Z,48.98
2015-10-27T02:14:23.517Z,49.08
2015-10-27T02:14:35.814Z,49.08
2015-10-27T02:14:48.129Z,49.08
2015-10-27T02:15:00.442Z,48.98
2015-10-27T02:15:12.770Z,48.89
2015-10-27T02:15:25.098Z,48.98
2015-10-27T02:15:37.426Z,49.08
2015-10-27T02:15:49.726Z,49.08
2015-10-27T02:16:01.867Z,48.98
2015-10-27T02:16:14.179Z,48.98
2015-10-27T02:16:26.476Z,49.17
2015-10-27T02:16:38.788Z,49.08
2015-10-27T02:16:51.120Z,49.17
2015-10-27T02:17:03.432Z,49.17
2015-10-27T02:17:15.729Z,49.27
2015-10-27T02:17:28.026Z,49.36
2015-10-27T02:17:40.323Z,49.27
2015-10-27T02:17:52.622Z,49.17
2015-10-27T02:18:04.918Z,48.98
2015-10-27T02:18:17.231Z,49.08
2015-10-27T02:18:29.543Z,48.98
2015-10-27T02:18:41.875Z,48.79
2015-10-27T02:18:54.171Z,48.7
2015-10-27T02:19:06.468Z,48.89
2015-10-27T02:19:18.765Z,48.6
2015-10-27T02:19:31.062Z,48.79
2015-10-27T02:19:43.362Z,48.51
2015-10-27T02:19:55.659Z,48.51
2015-10-27T02:20:07.987Z,48.7
2015-10-27T02:20:20.299Z,48.41
2015-10-27T02:20:32.628Z,48.41
2015-10-27T02:20:44.974Z,48.32
2015-10-27T02:20:57.256Z,48.22
2015-10-27T02:21:09.552Z,48.03
2015-10-27T02:21:21.849Z,48.22
2015-10-27T02:21:34.146Z,48.32
2015-10-27T02:21:46.461Z,48.41
2015-10-27T02:21:58.758Z,48.32
2015-10-27T02:22:11.070Z,48.03
2015-10-27T02:22:23.383Z,48.03
2015-10-27T02:22:35.726Z,47.94
2015-10-27T02:22:48.041Z,48.03
2015-10-27T02:23:00.369Z,48.13
2015-10-27T02:23:12.666Z,47.75
2015-10-27T02:23:24.806Z,47.75
2015-10-27T02:23:37.103Z,47.85
2015-10-27T02:23:49.403Z,47.56
2015-10-27T02:24:01.700Z,47.94
2015-10-27T02:24:14.013Z,47.85
2015-10-27T02:24:26.341Z,47.94
2015-10-27T02:24:38.513Z,47.85
2015-10-27T02:24:50.859Z,47.75
2015-10-27T02:25:03.187Z,47.66
2015-10-27T02:25:15.484Z,47.56
2015-10-27T02:25:27.781Z,47.85
2015-10-27T02:25:40.078Z,47.94
2015-10-27T02:25:52.377Z,47.85
2015-10-27T02:26:04.674Z,47.75
2015-10-27T02:26:16.986Z,47.94
2015-10-27T02:26:29.299Z,47.85
2015-10-27T02:26:41.611Z,47.85
2015-10-27T02:26:53.927Z,47.94
2015-10-27T02:27:06.224Z,47.94
2015-10-27T02:27:18.552Z,47.66
2015-10-27T02:27:30.708Z,47.09
2015-10-27T02:27:43.024Z,47.18
2015-10-27T02:27:55.320Z,47.18
2015-10-27T02:28:07.492Z,47.28
2015-10-27T02:28:19.805Z,46.9
2015-10-27T02:28:32.149Z,47.18
2015-10-27T02:28:44.448Z,47.28
2015-10-27T02:28:56.745Z,47.28
2015-10-27T02:29:09.042Z,46.8
2015-10-27T02:29:21.339Z,46.99
2015-10-27T02:29:33.636Z,46.9
2015-10-27T02:29:45.935Z,46.8
2015-10-27T02:29:58.247Z,46.71
2015-10-27T02:30:10.575Z,46.61
2015-10-27T02:30:22.904Z,46.42
2015-10-27T02:30:35.232Z,46.14
2015-10-27T02:30:47.532Z,45.95
2015-10-27T02:30:59.828Z,45.95
2015-10-27T02:31:12.141Z,46.23
2015-10-27T02:31:24.422Z,46.33
2015-10-27T02:31:36.750Z,46.23
2015-10-27T02:31:49.050Z,45.86
2015-10-27T02:32:01.363Z,46.33
2015-10-27T02:32:13.675Z,46.33
2015-10-27T02:32:26.003Z,46.23
2015-10-27T02:32:38.347Z,45.86
2015-10-27T02:32:50.647Z,45.86
2015-10-27T02:33:02.944Z,46.04
2015-10-27T02:33:15.241Z,45.76
2015-10-27T02:33:27.538Z,45.67
2015-10-27T02:33:39.819Z,45.76
2015-10-27T02:33:52.102Z,45.67
2015-10-27T02:34:04.399Z,45.38
2015-10-27T02:34:16.696Z,45.29
2015-10-27T02:34:29.008Z,45.38
2015-10-27T02:34:41.336Z,45
2015-10-27T02:34:53.699Z,45.19
2015-10-27T02:35:05.996Z,45.19
2015-10-27T02:35:18.308Z,45.1
2015-10-27T02:35:30.605Z,45.1
2015-10-27T02:35:42.905Z,44.91
2015-10-27T02:35:55.186Z,45.29
2015-10-27T02:36:07.499Z,45.1
2015-10-27T02:36:19.811Z,44.72
2015-10-27T02:36:32.139Z,44.81
2015-10-27T02:36:44.470Z,44.81
2015-10-27T02:36:56.799Z,44.81
2015-10-27T02:37:09.095Z,44.72
2015-10-27T02:37:21.408Z,44.81
2015-10-27T02:37:33.705Z,44.72
2015-10-27T02:37:46.019Z,44.72
2015-10-27T02:37:58.316Z,44.81
2015-10-27T02:38:10.660Z,44.72
2015-10-27T02:38:22.957Z,44.91
2015-10-27T02:38:35.285Z,44.91
2015-10-27T02:38:47.631Z,45.1
2015-10-27T02:38:59.959Z,45.1